createdAt,value
2023-03-16T12:49:12.984Z,18.73
2023-03-16T12:51:45.468Z,17.89
2023-03-16T12:54:25.709Z,19.19
2023-03-16T12:57:07.811Z,21.62
2023-03-16T12:59:43.657Z,21.51
2023-03-16T13:02:31.773Z,19.31
2023-03-16T13:05:18.537Z,20.02
2023-03-16T13:07:52.699Z,19.06
2023-03-16T13:10:25.784Z,19.74
2023-03-16T13:13:18.119Z,21.43
2023-03-16T13:15:58.520Z,20.56
2023-03-16T13:18:41.770Z,18.45
2023-03-16T13:21:21.601Z,18.83
2023-03-16T13:24:13.865Z,20.62
2023-03-16T13:27:29.319Z,21.22
2023-03-16T13:30:18.290Z,21.10
2023-03-16T13:32:55.233Z,19.78
2023-03-16T13:35:30.412Z,20.40
2023-03-16T13:38:06.564Z,21.76
2023-03-16T13:40:48.041Z,23.02
2023-03-16T13:43:31.860Z,22.98
2023-03-16T13:46:19.307Z,23.56
2023-03-16T13:48:51.268Z,23.26
2023-03-16T13:51:23.817Z,23.68
2023-03-16T13:53:55.552Z,23.10
2023-03-16T13:56:29.253Z,22.85
2023-03-16T13:59:01.020Z,20.08
2023-03-16T14:01:33.325Z,21.15
2023-03-16T14:04:13.680Z,20.69
2023-03-16T14:06:58.203Z,20.88
2023-03-16T14:09:34.511Z,19.92
2023-03-16T14:12:06.351Z,19.56
2023-03-16T14:14:41.331Z,18.53
2023-03-16T14:17:21.536Z,18.57
2023-03-16T14:19:59.730Z,19.92
2023-03-16T14:22:37.147Z,18.62
2023-03-16T14:25:25.517Z,19.76
2023-03-16T14:28:06.424Z,22.08
2023-03-16T14:30:38.218Z,19.60
2023-03-16T14:33:27.409Z,21.60
2023-03-16T14:36:09.764Z,23.15
2023-03-16T14:38:43.839Z,21.41
2023-03-16T14:41:26.344Z,20.55
2023-03-16T14:44:00.782Z,20.07
2023-03-16T14:46:40.432Z,21.57
2023-03-16T14:49:22.775Z,20.84
2023-03-16T14:52:02.686Z,20.21
2023-03-16T14:54:34.358Z,21.78
2023-03-16T14:57:06.304Z,22.91
2023-03-16T14:59:38.184Z,23.44
2023-03-16T15:02:22.226Z,23.83
2023-03-16T15:04:55.106Z,24.13
2023-03-16T15:07:34.563Z,24.12
2023-03-16T15:10:26.909Z,24.20
2023-03-16T15:13:06.174Z,23.09
2023-03-16T15:15:37.721Z,22.79
2023-03-16T15:18:09.759Z,20.23
2023-03-16T15:20:45.477Z,20.89
2023-03-16T15:23:17.469Z,21.32
2023-03-16T15:25:51.719Z,19.84
2023-03-16T15:28:25.516Z,17.97
2023-03-16T15:30:59.837Z,19.78
2023-03-16T15:33:32.611Z,20.34
2023-03-16T15:36:18.648Z,20.93
2023-03-16T15:38:54.345Z,20.89
2023-03-16T15:41:30.106Z,21.03
2023-03-16T15:44:12.075Z,20.74
2023-03-16T15:46:43.660Z,20.19
2023-03-16T15:49:15.480Z,20.09
2023-03-16T15:51:47.020Z,20.18
2023-03-16T15:54:18.551Z,20.20
2023-03-16T15:56:54.519Z,20.10
2023-03-16T15:59:30.939Z,20.27
2023-03-16T16:02:03.799Z,20.46
2023-03-16T16:04:35.474Z,20.88
2023-03-16T16:07:10.918Z,20.61
2023-03-16T16:09:42.905Z,20.27
2023-03-16T16:12:17.208Z,20.02
2023-03-16T16:14:48.972Z,18.32
2023-03-16T16:17:36.559Z,18.38
2023-03-16T16:20:35.292Z,18.22
2023-03-16T16:23:08.259Z,18.01
2023-03-16T16:25:42.365Z,17.88
2023-03-16T16:28:20.381Z,17.95
2023-03-16T16:30:52.110Z,17.65
2023-03-16T16:33:24.902Z,17.50
2023-03-16T16:36:01.587Z,17.10
2023-03-16T16:38:33.558Z,16.98
2023-03-16T16:41:09.139Z,16.88
2023-03-16T16:43:46.633Z,16.64
2023-03-16T16:46:22.577Z,16.41
2023-03-16T16:49:01.736Z,16.33
2023-03-16T16:51:34.321Z,16.26
2023-03-16T16:54:21.943Z,16.18
2023-03-16T16:56:56.390Z,16.09
2023-03-16T16:59:34.483Z,15.99
2023-03-16T17:02:43.610Z,15.91
2023-03-16T17:05:27.997Z,15.77
2023-03-16T17:08:04.062Z,15.64
2023-03-16T17:10:37.833Z,15.54
2023-03-16T17:13:40.134Z,15.31
2023-03-16T17:16:16.776Z,15.27
2023-03-16T17:18:49.486Z,15.27
2023-03-16T17:21:25.191Z,15.18
2023-03-16T17:23:57.536Z,15.07
2023-03-16T17:26:38.189Z,14.90
2023-03-16T17:29:29.046Z,14.72
2023-03-16T17:32:03.399Z,14.56
2023-03-16T17:34:35.425Z,14.42
2023-03-16T17:37:16.409Z,14.21
2023-03-16T17:39:48.173Z,14.04
2023-03-16T17:42:22.583Z,13.86
2023-03-16T17:44:54.263Z,13.73
2023-03-16T17:47:29.883Z,13.68
2023-03-16T17:50:01.457Z,13.60
2023-03-16T17:52:33.304Z,13.55
2023-03-16T17:55:05.443Z,13.33
2023-03-16T17:57:37.047Z,13.16
2023-03-16T18:00:35.878Z,13.08
2023-03-16T18:03:17.314Z,13.01
2023-03-16T18:05:49.149Z,12.90
2023-03-16T18:08:30.078Z,12.83
2023-03-16T18:11:07.706Z,12.76
2023-03-16T18:13:41.056Z,12.48
2023-03-16T18:16:19.996Z,12.35
2023-03-16T18:18:55.233Z,12.36
2023-03-16T18:21:27.119Z,12.24
2023-03-16T18:23:59.358Z,12.18
2023-03-16T18:26:30.961Z,12.20
2023-03-16T18:29:03.578Z,12.04
2023-03-16T18:31:35.699Z,12.03
2023-03-16T18:34:07.807Z,11.75
2023-03-16T18:36:41.048Z,11.57
2023-03-16T18:39:20.449Z,11.70
2023-03-16T18:41:52.696Z,11.68
2023-03-16T18:44:29.818Z,11.52
2023-03-16T18:47:03.269Z,11.54
2023-03-16T18:49:36.872Z,11.67
2023-03-16T18:52:22.760Z,11.76
2023-03-16T18:54:55.649Z,11.58
2023-03-16T18:57:28.776Z,11.26
2023-03-16T19:00:00.304Z,11.10
2023-03-16T19:02:41.712Z,11.12
2023-03-16T19:05:17.439Z,10.99
2023-03-16T19:07:52.864Z,10.88
2023-03-16T19:10:36.726Z,10.75
2023-03-16T19:13:19.344Z,10.66
2023-03-16T19:15:54.763Z,10.57
2023-03-16T19:18:26.407Z,10.37
2023-03-16T19:20:58.020Z,10.02
2023-03-16T19:23:35.534Z,10.18
2023-03-16T19:26:08.085Z,10.31
2023-03-16T19:28:42.624Z,10.25
2023-03-16T19:31:25.859Z,10.25
2023-03-16T19:33:58.556Z,10.19
2023-03-16T19:36:32.274Z,10.17
2023-03-16T19:39:04.186Z,10.08
2023-03-16T19:41:38.017Z,9.95
2023-03-16T19:44:26.126Z,9.98
2023-03-16T19:46:59.123Z,9.88
2023-03-16T19:49:30.920Z,9.94
2023-03-16T19:52:02.497Z,9.92
2023-03-16T19:54:35.073Z,9.87
2023-03-16T19:57:15.007Z,9.76
2023-03-16T19:59:53.138Z,9.65
2023-03-16T20:02:40.286Z,9.61
2023-03-16T20:05:25.586Z,9.54
2023-03-16T20:07:58.768Z,9.66
2023-03-16T20:10:32.654Z,9.68
2023-03-16T20:13:04.474Z,9.50
2023-03-16T20:15:37.529Z,9.50
2023-03-16T20:18:16.431Z,9.42
2023-03-16T20:20:48.090Z,9.28
2023-03-16T20:23:24.597Z,9.12
2023-03-16T20:26:02.169Z,9.05
2023-03-16T20:28:36.936Z,9.04
2023-03-16T20:31:18.237Z,9.08
2023-03-16T20:33:52.318Z,8.89
2023-03-16T20:36:25.345Z,8.89
2023-03-16T20:38:56.891Z,8.53
2023-03-16T20:41:32.324Z,8.59
2023-03-16T20:44:04.792Z,8.80
2023-03-16T20:46:41.128Z,8.71
2023-03-16T20:49:21.907Z,8.76
2023-03-16T20:51:54.140Z,8.65
2023-03-16T20:54:25.893Z,8.70
2023-03-16T20:56:58.009Z,8.52
2023-03-16T20:59:30.383Z,8.56
2023-03-16T21:02:03.196Z,8.31
2023-03-16T21:04:34.883Z,8.43
2023-03-16T21:07:06.642Z,8.39
2023-03-16T21:09:38.483Z,8.16
2023-03-16T21:12:27.056Z,8.61
2023-03-16T21:15:00.369Z,8.64
2023-03-16T21:17:37.138Z,8.54
2023-03-16T21:20:20.678Z,8.85
2023-03-16T21:22:52.429Z,8.74
2023-03-16T21:25:32.381Z,8.54
2023-03-16T21:28:05.163Z,8.57
2023-03-16T21:30:45.989Z,8.86
2023-03-16T21:33:32.630Z,8.92
2023-03-16T21:36:12.366Z,8.80
2023-03-16T21:38:45.960Z,8.86
2023-03-16T21:41:17.692Z,8.80
2023-03-16T21:43:54.385Z,8.95
2023-03-16T21:46:26.451Z,9.00
2023-03-16T21:48:58.084Z,9.11
2023-03-16T21:51:31.519Z,9.11
2023-03-16T21:54:03.896Z,9.13
2023-03-16T21:56:36.199Z,8.99
2023-03-16T21:59:08.053Z,8.96
2023-03-16T22:01:50.902Z,8.94
2023-03-16T22:04:32.335Z,8.99
2023-03-16T22:07:11.586Z,9.13
2023-03-16T22:09:43.278Z,9.11
2023-03-16T22:12:14.921Z,9.16
2023-03-16T22:14:46.472Z,9.19
2023-03-16T22:17:22.527Z,9.19
2023-03-16T22:19:54.305Z,9.17
2023-03-16T22:22:33.388Z,9.09
2023-03-16T22:25:18.832Z,9.07
2023-03-16T22:27:52.078Z,9.06
2023-03-16T22:30:27.631Z,9.07
2023-03-16T22:33:00.399Z,8.96
2023-03-16T22:35:36.682Z,8.90
2023-03-16T22:38:12.496Z,9.01
2023-03-16T22:40:44.183Z,9.05
2023-03-16T22:43:22.566Z,8.87
2023-03-16T22:45:56.495Z,8.86
2023-03-16T22:48:30.908Z,8.93
2023-03-16T22:51:04.767Z,8.73
2023-03-16T22:53:41.405Z,8.82
2023-03-16T22:56:13.144Z,8.77
2023-03-16T22:58:53.428Z,8.82
2023-03-16T23:01:39.314Z,8.80
2023-03-16T23:04:30.139Z,8.65
2023-03-16T23:07:02.108Z,8.71
2023-03-16T23:09:33.700Z,8.77
2023-03-16T23:12:14.434Z,8.81
2023-03-16T23:14:46.149Z,8.25
2023-03-16T23:17:22.115Z,8.46
2023-03-16T23:19:54.453Z,8.46
2023-03-16T23:22:26.490Z,8.43
2023-03-16T23:24:57.999Z,8.56
2023-03-16T23:27:29.564Z,8.59
2023-03-16T23:30:01.288Z,8.63
2023-03-16T23:32:33.080Z,8.52
2023-03-16T23:35:15.386Z,8.30
2023-03-16T23:37:48.227Z,8.20
2023-03-16T23:40:21.591Z,8.24
2023-03-16T23:42:56.165Z,8.27
2023-03-16T23:45:43.188Z,8.31
2023-03-16T23:48:19.541Z,8.31
2023-03-16T23:50:55.067Z,8.28
2023-03-16T23:53:26.633Z,8.11
2023-03-16T23:55:58.282Z,7.93
2023-03-16T23:58:29.767Z,7.74
